WAT5172 YLOX-YPAD
Flight info
| Callsign | WAT5172 |
|---|---|
| Flight time | 0h 31m |
| Altitude | 12000 |
| Route | TUMAN DCT CBRA DCT WRR DCT VIRAT |
| Aircraft | BE20/L-SBGRY/S |
Departure
| Time | 2026-04-15 07:00 |
|---|---|
| Airport | Loxton Airport (YLOX) |
Arrival
| Time | 2026-04-15 07:31 |
|---|---|
| Airport | Adelaide International Airport (YPAD) |
| Time | Latitude | Longitude | Altitude | Speed | Heading |
|---|---|---|---|---|---|
| 2026-04-15 06:50 | -34.47826 | 140.66430 | 98 ft | 0 kts | 278° |
| 2026-04-15 06:58 | -34.47878 | 140.66448 | 99 ft | 13 kts | 131° |
| 2026-04-15 06:58 | -34.47867 | 140.66466 | 99 ft | 12 kts | 10° |
| 2026-04-15 06:58 | -34.47726 | 140.66480 | 102 ft | 26 kts | 10° |
| 2026-04-15 06:59 | -34.47622 | 140.66484 | 106 ft | 9 kts | 313° |
| 2026-04-15 06:59 | -34.47634 | 140.66367 | 99 ft | 5 kts | 280° |
| 2026-04-15 06:59 | -34.47632 | 140.66359 | 98 ft | 5 kts | 301° |
| 2026-04-15 06:59 | -34.47535 | 140.66355 | 99 ft | 25 kts | 19° |
| 2026-04-15 07:00 | -34.47185 | 140.66363 | 108 ft | 84 kts | 356° |
| 2026-04-15 07:00 | -34.46449 | 140.66324 | 356 ft | 116 kts | 355° |
| 2026-04-15 07:00 | -34.45572 | 140.66276 | 786 ft | 132 kts | 349° |
| 2026-04-15 07:00 | -34.44789 | 140.65599 | 1137 ft | 162 kts | 299° |
| 2026-04-15 07:01 | -34.44324 | 140.64308 | 1671 ft | 171 kts | 298° |
| 2026-04-15 07:01 | -34.43761 | 140.62962 | 1972 ft | 192 kts | 289° |
| 2026-04-15 07:01 | -34.43821 | 140.61729 | 2479 ft | 187 kts | 245° |
| 2026-04-15 07:01 | -34.44729 | 140.60705 | 3335 ft | 176 kts | 209° |
| 2026-04-15 07:02 | -34.45817 | 140.60107 | 4139 ft | 169 kts | 204° |
| 2026-04-15 07:02 | -34.46885 | 140.59584 | 4968 ft | 163 kts | 204° |
| 2026-04-15 07:02 | -34.47926 | 140.59083 | 5755 ft | 160 kts | 204° |
| 2026-04-15 07:02 | -34.48950 | 140.58559 | 6488 ft | 160 kts | 209° |
| 2026-04-15 07:03 | -34.49861 | 140.57803 | 7177 ft | 158 kts | 224° |
| 2026-04-15 07:03 | -34.50489 | 140.56739 | 7853 ft | 156 kts | 252° |
| 2026-04-15 07:03 | -34.50717 | 140.55450 | 8561 ft | 157 kts | 261° |
| 2026-04-15 07:03 | -34.50875 | 140.54140 | 9303 ft | 157 kts | 261° |
| 2026-04-15 07:04 | -34.51044 | 140.52839 | 10048 ft | 157 kts | 260° |
| 2026-04-15 07:04 | -34.51234 | 140.51529 | 10706 ft | 158 kts | 259° |
| 2026-04-15 07:04 | -34.51439 | 140.50215 | 11381 ft | 158 kts | 259° |
| 2026-04-15 07:04 | -34.51652 | 140.48898 | 12036 ft | 163 kts | 259° |
| 2026-04-15 07:05 | -34.51895 | 140.47405 | 12117 ft | 197 kts | 259° |
| 2026-04-15 07:05 | -34.52178 | 140.45668 | 12135 ft | 221 kts | 259° |
| 2026-04-15 07:05 | -34.52488 | 140.43779 | 12134 ft | 235 kts | 259° |
| 2026-04-15 07:05 | -34.52814 | 140.41800 | 12135 ft | 243 kts | 259° |
| 2026-04-15 07:06 | -34.53149 | 140.39771 | 12130 ft | 247 kts | 259° |
| 2026-04-15 07:06 | -34.53488 | 140.37721 | 12135 ft | 249 kts | 259° |
| 2026-04-15 07:06 | -34.53829 | 140.35654 | 12130 ft | 251 kts | 259° |
| 2026-04-15 07:06 | -34.54172 | 140.33575 | 12131 ft | 251 kts | 259° |
| 2026-04-15 07:07 | -34.54515 | 140.31498 | 12134 ft | 251 kts | 259° |
| 2026-04-15 07:07 | -34.54858 | 140.29413 | 12135 ft | 252 kts | 259° |
| 2026-04-15 07:07 | -34.55201 | 140.27331 | 12135 ft | 252 kts | 259° |
| 2026-04-15 07:07 | -34.55543 | 140.25248 | 12134 ft | 252 kts | 259° |
| 2026-04-15 07:08 | -34.55886 | 140.23164 | 12131 ft | 252 kts | 259° |
| 2026-04-15 07:08 | -34.56228 | 140.21078 | 12133 ft | 252 kts | 259° |
| 2026-04-15 07:08 | -34.56569 | 140.18996 | 12135 ft | 252 kts | 259° |
| 2026-04-15 07:08 | -34.56910 | 140.16912 | 12132 ft | 252 kts | 259° |
| 2026-04-15 07:09 | -34.57251 | 140.14827 | 12133 ft | 252 kts | 259° |
| 2026-04-15 07:09 | -34.57592 | 140.12741 | 12137 ft | 252 kts | 259° |
| 2026-04-15 07:09 | -34.57932 | 140.10656 | 12132 ft | 252 kts | 259° |
| 2026-04-15 07:09 | -34.58272 | 140.08571 | 12133 ft | 252 kts | 259° |
| 2026-04-15 07:10 | -34.58611 | 140.06492 | 12133 ft | 252 kts | 259° |
| 2026-04-15 07:10 | -34.58951 | 140.04404 | 12132 ft | 252 kts | 259° |
| 2026-04-15 07:10 | -34.59290 | 140.02322 | 12133 ft | 252 kts | 259° |
| 2026-04-15 07:10 | -34.59629 | 140.00236 | 12137 ft | 252 kts | 259° |
| 2026-04-15 07:11 | -34.59963 | 139.98176 | 12131 ft | 252 kts | 259° |
| 2026-04-15 07:11 | -34.60301 | 139.96089 | 12131 ft | 252 kts | 259° |
| 2026-04-15 07:11 | -34.60638 | 139.94005 | 12129 ft | 252 kts | 259° |
| 2026-04-15 07:11 | -34.60975 | 139.91918 | 12133 ft | 252 kts | 259° |
| 2026-04-15 07:12 | -34.61312 | 139.89829 | 12132 ft | 252 kts | 259° |
| 2026-04-15 07:12 | -34.61648 | 139.87743 | 12131 ft | 252 kts | 259° |
| 2026-04-15 07:12 | -34.61983 | 139.85659 | 12132 ft | 252 kts | 259° |
| 2026-04-15 07:12 | -34.62315 | 139.83597 | 12130 ft | 252 kts | 259° |
| 2026-04-15 07:13 | -34.62654 | 139.81484 | 12126 ft | 252 kts | 259° |
| 2026-04-15 07:13 | -34.62989 | 139.79396 | 12127 ft | 252 kts | 259° |
| 2026-04-15 07:13 | -34.63323 | 139.77308 | 12130 ft | 252 kts | 259° |
| 2026-04-15 07:13 | -34.63657 | 139.75222 | 12128 ft | 252 kts | 259° |
| 2026-04-15 07:14 | -34.63991 | 139.73133 | 12125 ft | 252 kts | 260° |
| 2026-04-15 07:14 | -34.64324 | 139.71042 | 12125 ft | 252 kts | 259° |
| 2026-04-15 07:14 | -34.64657 | 139.68955 | 12124 ft | 252 kts | 259° |
| 2026-04-15 07:14 | -34.64990 | 139.66865 | 12125 ft | 252 kts | 260° |
| 2026-04-15 07:15 | -34.65322 | 139.64776 | 12134 ft | 252 kts | 260° |
| 2026-04-15 07:15 | -34.65653 | 139.62688 | 12131 ft | 252 kts | 260° |
| 2026-04-15 07:15 | -34.65985 | 139.60598 | 12133 ft | 252 kts | 260° |
| 2026-04-15 07:15 | -34.66316 | 139.58513 | 12127 ft | 252 kts | 260° |
| 2026-04-15 07:16 | -34.66646 | 139.56427 | 12124 ft | 252 kts | 260° |
| 2026-04-15 07:16 | -34.66978 | 139.54330 | 12123 ft | 252 kts | 259° |
| 2026-04-15 07:16 | -34.67307 | 139.52246 | 12124 ft | 252 kts | 260° |
| 2026-04-15 07:16 | -34.67636 | 139.50157 | 12125 ft | 252 kts | 260° |
| 2026-04-15 07:17 | -34.67965 | 139.48072 | 12126 ft | 252 kts | 260° |
| 2026-04-15 07:17 | -34.68293 | 139.45987 | 12125 ft | 252 kts | 260° |
| 2026-04-15 07:17 | -34.68617 | 139.43923 | 12125 ft | 252 kts | 260° |
| 2026-04-15 07:17 | -34.68939 | 139.41877 | 12130 ft | 252 kts | 260° |
| 2026-04-15 07:18 | -34.69267 | 139.39785 | 12128 ft | 252 kts | 260° |
| 2026-04-15 07:18 | -34.69594 | 139.37697 | 12127 ft | 252 kts | 260° |
| 2026-04-15 07:18 | -34.69921 | 139.35604 | 12127 ft | 252 kts | 260° |
| 2026-04-15 07:18 | -34.70249 | 139.33506 | 12005 ft | 256 kts | 260° |
| 2026-04-15 07:19 | -34.70584 | 139.31357 | 11639 ft | 260 kts | 260° |
| 2026-04-15 07:19 | -34.70900 | 139.29323 | 11292 ft | 261 kts | 260° |
| 2026-04-15 07:19 | -34.71235 | 139.27167 | 10931 ft | 258 kts | 260° |
| 2026-04-15 07:19 | -34.71564 | 139.25048 | 10572 ft | 251 kts | 260° |
| 2026-04-15 07:20 | -34.71885 | 139.22977 | 10214 ft | 247 kts | 260° |
| 2026-04-15 07:20 | -34.72201 | 139.20939 | 9831 ft | 244 kts | 260° |
| 2026-04-15 07:20 | -34.72842 | 139.16796 | 9048 ft | 242 kts | 260° |
| 2026-04-15 07:21 | -34.73151 | 139.14793 | 8666 ft | 240 kts | 260° |
| 2026-04-15 07:21 | -34.73459 | 139.12799 | 8286 ft | 239 kts | 260° |
| 2026-04-15 07:21 | -34.73764 | 139.10815 | 7917 ft | 239 kts | 260° |
| 2026-04-15 07:21 | -34.74068 | 139.08835 | 7551 ft | 238 kts | 260° |
| 2026-04-15 07:22 | -34.74371 | 139.06855 | 7188 ft | 238 kts | 260° |
| 2026-04-15 07:22 | -34.74674 | 139.04880 | 6830 ft | 237 kts | 260° |
| 2026-04-15 07:22 | -34.74976 | 139.02905 | 6469 ft | 237 kts | 260° |
| 2026-04-15 07:22 | -34.75277 | 139.00935 | 6092 ft | 237 kts | 260° |
| 2026-04-15 07:23 | -34.75578 | 138.98960 | 5716 ft | 237 kts | 260° |
| 2026-04-15 07:23 | -34.75878 | 138.96987 | 5346 ft | 238 kts | 261° |
| 2026-04-15 07:23 | -34.76179 | 138.95011 | 4978 ft | 237 kts | 261° |
| 2026-04-15 07:23 | -34.76478 | 138.93043 | 4601 ft | 237 kts | 261° |
| 2026-04-15 07:24 | -34.76777 | 138.91069 | 4227 ft | 237 kts | 261° |
| 2026-04-15 07:24 | -34.77074 | 138.89112 | 4002 ft | 232 kts | 261° |
| 2026-04-15 07:24 | -34.77363 | 138.87210 | 3900 ft | 226 kts | 261° |
| 2026-04-15 07:24 | -34.77647 | 138.85352 | 3849 ft | 221 kts | 261° |
| 2026-04-15 07:25 | -34.78001 | 138.83566 | 3826 ft | 215 kts | 250° |
| 2026-04-15 07:25 | -34.78427 | 138.81852 | 3813 ft | 211 kts | 262° |
| 2026-04-15 07:25 | -34.78634 | 138.80086 | 3818 ft | 211 kts | 264° |
| 2026-04-15 07:25 | -34.78826 | 138.78316 | 3817 ft | 212 kts | 264° |
| 2026-04-15 07:26 | -34.79078 | 138.76558 | 3819 ft | 211 kts | 255° |
| 2026-04-15 07:26 | -34.79805 | 138.75004 | 3810 ft | 213 kts | 233° |
| 2026-04-15 07:26 | -34.80773 | 138.73635 | 3812 ft | 215 kts | 231° |
| 2026-04-15 07:26 | -34.81748 | 138.72274 | 3756 ft | 218 kts | 232° |
| 2026-04-15 07:27 | -34.82742 | 138.70819 | 3459 ft | 228 kts | 233° |
| 2026-04-15 07:27 | -34.83778 | 138.69301 | 3152 ft | 232 kts | 232° |
| 2026-04-15 07:27 | -34.84797 | 138.67826 | 2848 ft | 222 kts | 231° |
| 2026-04-15 07:27 | -34.85742 | 138.66449 | 2551 ft | 203 kts | 232° |
| 2026-04-15 07:28 | -34.86618 | 138.65173 | 2280 ft | 191 kts | 232° |
| 2026-04-15 07:28 | -34.87429 | 138.63995 | 2011 ft | 172 kts | 232° |
| 2026-04-15 07:28 | -34.88170 | 138.62917 | 1765 ft | 161 kts | 231° |
| 2026-04-15 07:28 | -34.88843 | 138.61927 | 1564 ft | 136 kts | 232° |
| 2026-04-15 07:29 | -34.89407 | 138.61115 | 1374 ft | 117 kts | 231° |
| 2026-04-15 07:29 | -34.89907 | 138.60366 | 1221 ft | 113 kts | 233° |
| 2026-04-15 07:29 | -34.90437 | 138.59601 | 968 ft | 125 kts | 230° |
| 2026-04-15 07:29 | -34.91018 | 138.58812 | 771 ft | 122 kts | 231° |
| 2026-04-15 07:30 | -34.91551 | 138.58007 | 641 ft | 125 kts | 233° |
| 2026-04-15 07:30 | -34.92087 | 138.57170 | 624 ft | 126 kts | 227° |
| 2026-04-15 07:30 | -34.92683 | 138.56385 | 619 ft | 128 kts | 230° |
| 2026-04-15 07:30 | -34.93241 | 138.55564 | 466 ft | 122 kts | 233° |
| 2026-04-15 07:31 | -34.93749 | 138.54779 | 195 ft | 111 kts | 231° |
| 2026-04-15 07:31 | -34.94208 | 138.54109 | 40 ft | 95 kts | 232° |
| 2026-04-15 07:31 | -34.94573 | 138.53558 | 11 ft | 66 kts | 227° |
| 2026-04-15 07:31 | -34.94714 | 138.53357 | 15 ft | 16 kts | 235° |
| 2026-04-15 07:32 | -34.94722 | 138.53327 | 14 ft | 1 kts | 282° |
| 2026-04-15 07:32 | -34.94615 | 138.53138 | 14 ft | 48 kts | 314° |